Pagina principale
METAR-TAF:

METAR-TAF

Aeroporti :

Alderney,

latitudine: 49-43N, longitudine: 002-12W, altezza: 71 m

Osservazione

Il bollettino è stato emesso 6 ore e 9 minuti fa, alle 17:20 UTC
Vento 20 kt da est/nord-est
Temperature 15°C
Umidità 63%
Pressione 1022 hPa
Visibilità 10 km o più
nessuna nube inferiore a 1500 m e nessun cumulonembo

METAR: EGJA 291720Z 07020KT CAVOK 15/08 Q1022

Ora: 00:29 (23:29 UTC)

Previsione

Il bollettino è stato emesso 9 ore e 33 minuti fa, alle 13:56 UTC
Previsione valida dal 29 alle 15 UTC al 30 alle 00 UTC
Vento 18 kt da est/nord-est
Visibilità 10 km o più
nessuna nube inferiore a 1500 m e nessun cumulonembo

TAF: EGJA 291356Z 2915/3000 07018KT CAVOK

Osservazioni e previsioni meteorologiche di più di 4000 aeroporti (messaggi METAR e TAF).

Le stazioni disponibili sono rappresentate dai dischi gialli e rossi sulla carta.

Puntare il mouse per vedere il nome della stazione.

Clicca sopra per visualizzare le osservazioni e previsioni meteorologiche.

Per cambiare la mappa : fare clic sui pulsanti verdi con una croce nera per ingrandire, il pulsante verde con un trattino per diminuire, o sulla freccia verde per le mappe adiacenti.


METAR-TAF: